CheckWX is a tool to help pilots better visualize weather data.  It is not intended as a substitute for an official pre-flight weather briefing.

10:47:20 UTC

KMTN METAR
Martin State Airport
Baltimore, Maryland, USA
Current

1 hour ago

KMTN 180945Z 08010KT 10SM OVC015 14/12 A3005
Observed
Apr-18 @ 09:45 UTC
Wind
  • 080° at 10 KTS
Visibility
10 SM
Flight Rules
MVFR
Cloud Levels
  • Overcast at 1,500' AGL
Temperature
14°C / 57°F
Dewpoint
12°C / 54°F
Humidity
88%
Altimeter
30.05" Hg
Pressure
1017.62 hPa
Previous

1 hour ago

KMTN 180930Z AUTO 07006KT 10SM OVC015 13/12 A3005 RMK AO2
Observed
Apr-18 @ 09:30 UTC
Wind
  • 070° at 6 KTS
Visibility
10 SM
Flight Rules
MVFR
Cloud Levels
  • Overcast at 1,500' AGL
Temperature
13°C / 55°F
Dewpoint
12°C / 54°F
Humidity
94%
Altimeter
30.05" Hg
Pressure
1017.62 hPa
Previous

1 hour ago

KMTN 180921Z AUTO 07006KT 10SM OVC015 13/12 A3005 RMK AO2
Observed
Apr-18 @ 09:21 UTC
Wind
  • 070° at 6 KTS
Visibility
10 SM
Flight Rules
MVFR
Cloud Levels
  • Overcast at 1,500' AGL
Temperature
13°C / 55°F
Dewpoint
12°C / 54°F
Humidity
94%
Altimeter
30.05" Hg
Pressure
1017.62 hPa